createdAt,value
2022-10-06T00:01:40.329Z,16.87
2022-10-06T00:04:10.095Z,16.47
2022-10-06T00:06:39.828Z,16.34
2022-10-06T00:09:09.668Z,16.29
2022-10-06T00:11:39.395Z,16.32
2022-10-06T00:14:09.171Z,16.27
2022-10-06T00:16:41.521Z,16.17
2022-10-06T00:19:11.256Z,16.07
2022-10-06T00:21:41.067Z,15.75
2022-10-06T00:24:10.836Z,16.01
2022-10-06T00:26:40.618Z,16.00
2022-10-06T00:29:11.757Z,16.13
2022-10-06T00:31:45.160Z,16.15
2022-10-06T00:34:14.879Z,16.20
2022-10-06T00:36:44.607Z,16.12
2022-10-06T00:39:14.382Z,16.09
2022-10-06T00:41:44.099Z,16.12
2022-10-06T00:44:13.850Z,16.13
2022-10-06T00:46:48.335Z,15.98
2022-10-06T00:49:21.528Z,16.09
2022-10-06T00:51:54.904Z,16.08
2022-10-06T00:54:24.852Z,16.07
2022-10-06T00:56:55.335Z,15.78
2022-10-06T00:59:25.095Z,15.97
2022-10-06T01:02:04.763Z,15.93
2022-10-06T01:04:36.518Z,15.96
2022-10-06T01:07:06.912Z,16.01
2022-10-06T01:09:37.909Z,15.96
2022-10-06T01:12:10.925Z,16.03
2022-10-06T01:14:42.386Z,15.93
2022-10-06T01:17:21.106Z,15.82
2022-10-06T01:19:54.013Z,15.89
2022-10-06T01:22:31.898Z,15.70
2022-10-06T01:25:02.715Z,15.81
2022-10-06T01:27:34.765Z,15.73
2022-10-06T01:30:05.248Z,15.69
2022-10-06T01:32:37.941Z,15.74
2022-10-06T01:35:10.946Z,15.76
2022-10-06T01:37:44.758Z,15.78
2022-10-06T01:40:14.638Z,15.71
2022-10-06T01:42:44.381Z,15.67
2022-10-06T01:45:14.111Z,15.48
2022-10-06T01:47:43.848Z,15.66
2022-10-06T01:50:14.310Z,15.64
2022-10-06T01:52:47.567Z,15.74
2022-10-06T01:55:17.677Z,15.68
2022-10-06T01:57:47.730Z,15.65
2022-10-06T02:00:20.026Z,15.71
2022-10-06T02:02:50.884Z,15.67
2022-10-06T02:05:20.926Z,15.72
2022-10-06T02:07:57.159Z,15.49
2022-10-06T02:10:27.086Z,15.69
2022-10-06T02:12:57.522Z,15.74
2022-10-06T02:15:28.583Z,15.61
2022-10-06T02:17:58.321Z,15.82
2022-10-06T02:20:30.439Z,15.47
2022-10-06T02:23:02.863Z,15.78
2022-10-06T02:25:33.102Z,15.77
2022-10-06T02:28:02.907Z,15.75
2022-10-06T02:30:33.087Z,15.76
2022-10-06T02:33:03.043Z,15.76
2022-10-06T02:35:33.093Z,15.40
2022-10-06T02:38:05.602Z,15.83
2022-10-06T02:40:35.671Z,15.77
2022-10-06T02:43:05.426Z,15.81
2022-10-06T02:45:35.233Z,15.76
2022-10-06T02:48:05.031Z,15.69
2022-10-06T02:50:35.698Z,15.65
2022-10-06T02:53:09.804Z,15.63
2022-10-06T02:55:39.602Z,15.66
2022-10-06T02:58:11.359Z,15.65
2022-10-06T03:00:41.213Z,15.56
2022-10-06T03:03:11.006Z,15.67
2022-10-06T03:05:40.756Z,15.69
2022-10-06T03:08:13.499Z,15.49
2022-10-06T03:10:43.335Z,15.51
2022-10-06T03:13:13.108Z,15.43
2022-10-06T03:15:43.389Z,15.46
2022-10-06T03:18:13.395Z,15.43
2022-10-06T03:20:43.126Z,15.44
2022-10-06T03:23:15.567Z,15.55
2022-10-06T03:25:45.413Z,15.55
2022-10-06T03:28:15.230Z,15.37
2022-10-06T03:30:45.043Z,15.50
2022-10-06T03:33:14.784Z,15.48
2022-10-06T03:35:44.586Z,15.38
2022-10-06T03:38:16.960Z,15.43
2022-10-06T03:40:46.680Z,15.47
2022-10-06T03:43:16.687Z,15.43
2022-10-06T03:45:46.551Z,15.57
2022-10-06T03:48:16.303Z,15.58
2022-10-06T03:50:46.125Z,15.58
2022-10-06T03:53:18.896Z,15.56
2022-10-06T03:55:48.717Z,15.47
2022-10-06T03:58:19.809Z,15.46
2022-10-06T04:00:50.107Z,15.46
2022-10-06T04:03:22.435Z,15.45
2022-10-06T04:05:57.480Z,15.23
2022-10-06T04:08:33.579Z,15.53
2022-10-06T04:11:11.285Z,15.35
2022-10-06T04:13:41.752Z,15.37
2022-10-06T04:16:14.124Z,15.41
2022-10-06T04:18:46.053Z,14.86
2022-10-06T04:21:16.597Z,15.18
2022-10-06T04:23:50.226Z,15.20
2022-10-06T04:26:23.849Z,15.17
2022-10-06T04:28:57.177Z,15.16
2022-10-06T04:31:32.900Z,15.16
2022-10-06T04:34:04.345Z,15.03
2022-10-06T04:36:38.247Z,15.03
2022-10-06T04:39:13.475Z,15.05
2022-10-06T04:41:48.993Z,14.96
2022-10-06T04:44:26.236Z,15.02
2022-10-06T04:47:01.350Z,14.85
2022-10-06T04:49:32.210Z,14.80
2022-10-06T04:52:02.227Z,14.59
2022-10-06T04:54:38.626Z,14.97
2022-10-06T04:57:10.402Z,14.84
2022-10-06T04:59:53.431Z,14.95
2022-10-06T05:02:25.706Z,14.94
2022-10-06T05:04:59.254Z,15.00
2022-10-06T05:07:29.125Z,14.66
2022-10-06T05:10:03.194Z,14.84
2022-10-06T05:12:35.124Z,14.74
2022-10-06T05:15:09.736Z,14.71
2022-10-06T05:17:40.784Z,14.61
2022-10-06T05:20:13.701Z,14.81
2022-10-06T05:22:45.783Z,14.80
2022-10-06T05:25:19.348Z,14.64
2022-10-06T05:27:50.424Z,14.57
2022-10-06T05:30:21.226Z,14.44
2022-10-06T05:32:54.855Z,14.60
2022-10-06T05:35:24.688Z,14.55
2022-10-06T05:37:57.507Z,14.45
2022-10-06T05:40:30.923Z,14.20
2022-10-06T05:43:02.026Z,14.38
2022-10-06T05:45:33.044Z,14.44
2022-10-06T05:48:03.960Z,14.34
2022-10-06T05:50:34.983Z,14.27
2022-10-06T05:53:06.437Z,14.39
2022-10-06T05:55:39.906Z,14.24
2022-10-06T05:58:11.312Z,14.30
2022-10-06T06:00:43.987Z,14.17
2022-10-06T06:03:14.792Z,14.01
2022-10-06T06:05:45.903Z,13.94
2022-10-06T06:08:16.689Z,13.71
2022-10-06T06:10:49.938Z,13.85
2022-10-06T06:13:22.696Z,14.00
2022-10-06T06:16:09.257Z,13.82
2022-10-06T06:18:40.584Z,13.94
2022-10-06T06:21:13.536Z,13.87
2022-10-06T06:23:47.078Z,14.11
2022-10-06T06:26:23.583Z,14.26
2022-10-06T06:28:57.316Z,14.25
2022-10-06T06:31:29.889Z,14.31
2022-10-06T06:34:04.839Z,14.36
2022-10-06T06:36:36.899Z,14.10
2022-10-06T06:39:13.602Z,14.15
2022-10-06T06:41:48.912Z,14.36
2022-10-06T06:44:43.143Z,14.40
2022-10-06T06:47:26.741Z,14.15
2022-10-06T06:49:58.909Z,14.52
2022-10-06T06:52:30.116Z,14.48
2022-10-06T06:55:00.736Z,14.41
2022-10-06T06:57:33.634Z,14.46
2022-10-06T07:00:08.355Z,14.98
2022-10-06T07:02:40.954Z,14.87
2022-10-06T07:05:12.409Z,14.61
2022-10-06T07:07:44.416Z,14.52
2022-10-06T07:10:15.252Z,14.70
2022-10-06T07:12:48.821Z,14.52
2022-10-06T07:15:33.923Z,14.62
2022-10-06T07:18:18.817Z,14.51
2022-10-06T07:21:01.277Z,14.42
2022-10-06T07:23:50.138Z,14.29
2022-10-06T07:26:24.235Z,14.63
2022-10-06T07:29:00.085Z,14.58
2022-10-06T07:31:33.603Z,14.67
2022-10-06T07:34:06.552Z,14.69
2022-10-06T07:36:38.380Z,14.69
2022-10-06T07:39:11.243Z,14.73
2022-10-06T07:41:42.381Z,14.68
2022-10-06T07:44:15.773Z,14.86
2022-10-06T07:46:48.627Z,14.86
2022-10-06T07:49:22.727Z,14.78
2022-10-06T07:51:53.745Z,14.85
2022-10-06T07:54:27.451Z,15.01
2022-10-06T07:57:16.573Z,14.93
2022-10-06T07:59:48.894Z,15.02
2022-10-06T08:02:20.383Z,15.03
2022-10-06T08:04:50.205Z,15.09
2022-10-06T08:07:20.992Z,15.10
2022-10-06T08:09:54.733Z,15.29
2022-10-06T08:12:38.042Z,15.34
2022-10-06T08:15:13.807Z,15.30
2022-10-06T08:17:44.913Z,15.41
2022-10-06T08:20:17.263Z,15.31
2022-10-06T08:22:50.652Z,15.41
2022-10-06T08:25:21.370Z,15.50
2022-10-06T08:27:53.610Z,15.45
2022-10-06T08:30:27.402Z,15.03
2022-10-06T08:32:59.231Z,15.37
2022-10-06T08:35:30.521Z,15.58
2022-10-06T08:38:02.432Z,15.71
2022-10-06T08:40:34.545Z,15.69
2022-10-06T08:43:06.381Z,15.75
2022-10-06T08:45:45.477Z,15.54
2022-10-06T08:48:21.388Z,15.54
2022-10-06T08:51:01.974Z,15.85
2022-10-06T08:53:40.420Z,15.87
2022-10-06T08:56:18.328Z,15.93
2022-10-06T08:58:55.728Z,15.90
2022-10-06T09:01:33.699Z,15.83
2022-10-06T09:04:08.096Z,16.18
2022-10-06T09:06:49.547Z,16.10
2022-10-06T09:09:30.632Z,16.12
2022-10-06T09:12:10.230Z,16.24
2022-10-06T09:14:45.761Z,16.27
2022-10-06T09:17:26.216Z,16.39
2022-10-06T09:20:02.828Z,16.49
2022-10-06T09:22:34.505Z,16.61
2022-10-06T09:25:18.111Z,16.31
2022-10-06T09:27:51.677Z,16.39
2022-10-06T09:30:22.841Z,16.39
2022-10-06T09:33:00.587Z,16.51
2022-10-06T09:35:31.983Z,16.48
2022-10-06T09:38:08.591Z,16.61
2022-10-06T09:40:44.434Z,16.64
2022-10-06T09:43:25.560Z,16.44
2022-10-06T09:45:58.284Z,16.31
2022-10-06T09:48:30.637Z,16.36
2022-10-06T09:51:15.020Z,16.44
2022-10-06T09:54:07.745Z,16.09
2022-10-06T09:56:37.485Z,16.28
2022-10-06T09:59:17.690Z,16.13
2022-10-06T10:01:55.278Z,16.28
2022-10-06T10:04:30.416Z,16.52
2022-10-06T10:07:16.621Z,16.71
2022-10-06T10:09:46.404Z,16.62
2022-10-06T10:12:31.595Z,16.78
2022-10-06T10:15:04.557Z,16.89
2022-10-06T10:17:47.408Z,16.74
2022-10-06T10:20:37.497Z,17.01
2022-10-06T10:23:21.135Z,17.12
2022-10-06T10:26:04.514Z,17.04
2022-10-06T10:28:56.359Z,16.90
2022-10-06T10:31:39.477Z,16.93
2022-10-06T10:34:24.312Z,17.32
2022-10-06T10:37:00.195Z,17.54
2022-10-06T10:39:36.263Z,17.67
2022-10-06T10:42:15.436Z,17.82
2022-10-06T10:44:53.291Z,17.68
2022-10-06T10:47:28.597Z,17.43
2022-10-06T10:50:07.319Z,17.42
2022-10-06T10:52:44.082Z,17.50
2022-10-06T10:55:27.095Z,17.64
2022-10-06T10:58:01.166Z,17.84
2022-10-06T11:00:35.428Z,17.90
2022-10-06T11:03:05.403Z,18.12
2022-10-06T11:05:50.399Z,18.13
2022-10-06T11:08:30.660Z,17.97
2022-10-06T11:11:03.590Z,17.89
2022-10-06T11:13:41.419Z,17.95
2022-10-06T11:16:21.616Z,17.96
2022-10-06T11:19:14.821Z,17.88
2022-10-06T11:21:54.762Z,17.80
2022-10-06T11:24:38.351Z,17.73
2022-10-06T11:27:20.873Z,17.83
2022-10-06T11:30:05.317Z,17.90
2022-10-06T11:32:49.971Z,16.89
2022-10-06T11:35:23.253Z,17.95
2022-10-06T11:38:00.097Z,17.98
2022-10-06T11:40:48.036Z,18.12
2022-10-06T11:43:26.246Z,18.08
2022-10-06T11:46:04.580Z,18.13
2022-10-06T11:48:36.157Z,18.20
2022-10-06T11:51:33.327Z,18.06
2022-10-06T11:54:05.821Z,18.20
2022-10-06T11:56:42.511Z,18.23
2022-10-06T11:59:25.903Z,18.38
2022-10-06T12:01:58.777Z,18.30
2022-10-06T12:04:29.666Z,18.47
2022-10-06T12:07:08.308Z,18.32
2022-10-06T12:09:52.646Z,18.63
2022-10-06T12:13:06.881Z,18.70
2022-10-06T12:19:02.411Z,18.37
2022-10-06T12:21:46.763Z,18.28
2022-10-06T12:24:27.683Z,18.63
2022-10-06T12:27:13.705Z,18.64
2022-10-06T12:29:52.994Z,18.87
2022-10-06T12:32:40.273Z,18.87
2022-10-06T12:35:24.701Z,18.64
2022-10-06T12:37:55.422Z,18.67
2022-10-06T12:40:58.057Z,18.49
2022-10-06T12:43:37.137Z,18.68
2022-10-06T12:46:16.891Z,18.71
2022-10-06T12:48:56.403Z,18.65
2022-10-06T12:54:27.255Z,18.78
2022-10-06T12:57:02.080Z,18.76
2022-10-06T12:59:34.995Z,18.66
2022-10-06T13:02:13.199Z,18.74
2022-10-06T13:04:45.734Z,18.80
2022-10-06T13:07:20.840Z,18.73
2022-10-06T13:09:52.834Z,18.92
2022-10-06T13:12:26.254Z,19.01
2022-10-06T13:15:29.578Z,18.93
2022-10-06T13:18:12.709Z,19.00
2022-10-06T13:20:45.535Z,19.07
2022-10-06T13:23:28.708Z,19.05
2022-10-06T13:26:00.596Z,19.01
2022-10-06T13:28:42.784Z,18.89
2022-10-06T13:31:20.810Z,18.99
2022-10-06T13:33:57.178Z,18.92
2022-10-06T13:36:28.912Z,18.73
2022-10-06T13:39:00.100Z,18.93
2022-10-06T13:41:32.930Z,19.15
2022-10-06T13:44:07.230Z,19.24
2022-10-06T13:46:42.437Z,19.14
2022-10-06T13:49:21.540Z,19.19
2022-10-06T13:51:56.891Z,19.21
2022-10-06T13:54:32.174Z,19.21
2022-10-06T13:57:02.078Z,19.53
2022-10-06T13:59:38.509Z,19.24
2022-10-06T14:02:28.190Z,19.05
2022-10-06T14:05:29.946Z,19.02
2022-10-06T14:08:05.567Z,19.05
2022-10-06T14:10:47.456Z,18.97
2022-10-06T14:13:21.525Z,18.72
2022-10-06T14:15:54.875Z,18.52
2022-10-06T14:18:28.054Z,18.44
2022-10-06T14:21:01.607Z,18.66
2022-10-06T14:23:46.120Z,18.83
2022-10-06T14:26:17.593Z,18.61
2022-10-06T14:28:54.160Z,18.54
2022-10-06T14:31:25.039Z,18.56
2022-10-06T14:33:57.783Z,18.69
2022-10-06T14:36:33.619Z,18.88
2022-10-06T14:39:05.295Z,18.86
2022-10-06T14:41:37.346Z,18.73
2022-10-06T14:44:11.482Z,18.72
2022-10-06T14:46:43.975Z,18.79
2022-10-06T14:49:15.168Z,18.80
2022-10-06T14:51:47.691Z,18.89
2022-10-06T14:54:18.123Z,18.78
2022-10-06T14:56:52.285Z,18.55
2022-10-06T14:59:24.790Z,18.40
2022-10-06T15:01:55.600Z,18.64
2022-10-06T15:04:28.015Z,18.63
2022-10-06T15:07:13.829Z,18.39
2022-10-06T15:09:45.391Z,18.54
2022-10-06T15:12:17.860Z,18.06
2022-10-06T15:14:48.667Z,18.14
2022-10-06T15:17:19.416Z,18.18
2022-10-06T15:19:49.476Z,18.34
2022-10-06T15:22:22.783Z,18.33
2022-10-06T15:24:55.842Z,17.99
2022-10-06T15:30:12.320Z,18.15
2022-10-06T15:32:43.285Z,18.33
2022-10-06T15:35:13.022Z,18.41
2022-10-06T15:37:45.423Z,18.36
2022-10-06T15:40:15.200Z,18.27
2022-10-06T15:42:45.003Z,18.39
2022-10-06T15:45:16.991Z,18.45
2022-10-06T15:47:48.443Z,18.39
2022-10-06T15:50:19.371Z,18.62
2022-10-06T15:52:52.034Z,18.65
2022-10-06T15:55:22.731Z,18.69
2022-10-06T15:57:53.488Z,18.63
2022-10-06T16:00:24.199Z,18.50
2022-10-06T16:02:55.969Z,18.40
2022-10-06T16:05:38.986Z,18.33
2022-10-06T16:08:12.347Z,18.15
2022-10-06T16:10:43.011Z,18.06
2022-10-06T16:13:13.843Z,18.00
2022-10-06T16:15:45.697Z,17.97
2022-10-06T16:18:15.478Z,18.01
2022-10-06T16:20:45.245Z,17.80
2022-10-06T16:23:18.590Z,17.93
2022-10-06T16:25:49.478Z,17.87
2022-10-06T16:28:19.401Z,17.83
2022-10-06T16:30:57.228Z,17.88
2022-10-06T16:33:28.099Z,17.71
2022-10-06T16:35:58.347Z,17.65
2022-10-06T16:38:31.723Z,17.59
2022-10-06T16:41:02.867Z,17.52
2022-10-06T16:43:34.002Z,17.53
2022-10-06T16:46:06.424Z,17.42
2022-10-06T16:48:39.618Z,17.41
2022-10-06T16:51:11.408Z,17.28
2022-10-06T16:53:48.979Z,17.37
2022-10-06T16:56:20.581Z,17.29
2022-10-06T16:58:53.510Z,17.31
2022-10-06T17:01:25.422Z,17.26
2022-10-06T17:04:00.249Z,17.21
2022-10-06T17:06:30.051Z,17.14
2022-10-06T17:09:02.612Z,17.08
2022-10-06T17:11:32.425Z,17.00
2022-10-06T17:14:02.248Z,16.66
2022-10-06T17:16:34.483Z,16.90
2022-10-06T17:19:04.978Z,16.82
2022-10-06T17:21:55.689Z,16.82
2022-10-06T17:24:28.794Z,16.63
2022-10-06T17:27:01.102Z,16.59
2022-10-06T17:29:30.941Z,16.58
2022-10-06T17:32:02.736Z,16.52
2022-10-06T17:34:34.275Z,16.37
2022-10-06T17:37:05.155Z,16.12
2022-10-06T17:39:38.502Z,16.41
2022-10-06T17:42:08.944Z,16.20
2022-10-06T17:44:39.722Z,16.23
2022-10-06T17:47:12.635Z,15.90
2022-10-06T17:49:42.446Z,16.04
2022-10-06T17:52:12.406Z,16.01
2022-10-06T17:54:46.447Z,15.96
2022-10-06T17:57:16.293Z,15.89
2022-10-06T17:59:47.107Z,15.75
2022-10-06T18:02:17.125Z,15.75
2022-10-06T18:04:47.549Z,15.79
2022-10-06T18:07:18.294Z,15.72
2022-10-06T18:10:10.794Z,15.67
2022-10-06T18:12:38.544Z,15.51
2022-10-06T18:15:11.077Z,15.49
2022-10-06T18:17:42.362Z,15.45
2022-10-06T18:20:12.456Z,15.45
2022-10-06T18:22:43.833Z,15.40
2022-10-06T18:25:17.542Z,15.41
2022-10-06T18:27:49.244Z,15.07
2022-10-06T18:30:19.457Z,15.27
2022-10-06T18:38:31.516Z,15.13
2022-10-06T18:41:05.783Z,15.07
2022-10-06T18:43:36.651Z,15.11
2022-10-06T18:46:21.704Z,14.98
2022-10-06T18:48:58.662Z,14.82
2022-10-06T18:51:37.393Z,14.97
2022-10-06T18:54:10.967Z,14.74
2022-10-06T18:56:49.982Z,15.00
2022-10-06T18:59:23.389Z,14.95
2022-10-06T19:01:54.255Z,14.83
2022-10-06T19:04:27.119Z,14.85
2022-10-06T19:06:58.452Z,14.80
2022-10-06T19:09:29.362Z,14.75
2022-10-06T19:12:02.758Z,14.45
2022-10-06T19:14:35.942Z,14.47
2022-10-06T19:17:12.699Z,14.52
2022-10-06T19:19:45.637Z,14.46
2022-10-06T19:22:17.239Z,13.73
2022-10-06T19:24:48.656Z,14.42
2022-10-06T19:27:25.133Z,14.38
2022-10-06T19:29:57.748Z,14.22
2022-10-06T19:32:32.117Z,14.32
2022-10-06T19:35:09.223Z,14.23
2022-10-06T19:37:40.935Z,13.87
2022-10-06T19:40:11.555Z,13.92
2022-10-06T19:42:48.738Z,14.08
2022-10-06T19:45:21.052Z,13.81
2022-10-06T19:47:52.189Z,13.89
2022-10-06T19:50:23.122Z,13.63
2022-10-06T19:52:53.940Z,13.90
2022-10-06T19:55:26.037Z,13.79
2022-10-06T19:58:00.101Z,13.86
2022-10-06T20:00:31.358Z,13.77
2022-10-06T20:03:01.115Z,13.72
2022-10-06T20:05:31.864Z,13.48
2022-10-06T20:08:04.002Z,13.63
2022-10-06T20:10:34.880Z,13.57
2022-10-06T20:13:09.878Z,13.40
2022-10-06T20:15:40.706Z,13.40
2022-10-06T20:18:12.112Z,13.26
2022-10-06T20:20:42.935Z,13.53
2022-10-06T20:23:13.781Z,13.42
2022-10-06T20:25:44.569Z,13.50
2022-10-06T20:28:17.107Z,13.38
2022-10-06T20:30:50.098Z,13.33
2022-10-06T20:33:22.073Z,13.20
2022-10-06T20:35:51.828Z,13.22
2022-10-06T20:38:43.200Z,13.25
2022-10-06T20:41:10.381Z,13.13
2022-10-06T20:43:43.726Z,13.08
2022-10-06T20:46:14.797Z,12.96
2022-10-06T20:48:45.689Z,12.83
2022-10-06T20:51:16.500Z,12.99
2022-10-06T20:53:47.558Z,12.87
2022-10-06T20:56:18.159Z,12.80
2022-10-06T20:58:51.726Z,12.98
2022-10-06T21:01:24.769Z,12.89
2022-10-06T21:03:56.108Z,12.93
2022-10-06T21:06:27.249Z,12.76
2022-10-06T21:08:58.498Z,12.90
2022-10-06T21:11:29.658Z,12.86
2022-10-06T21:14:02.390Z,12.59
2022-10-06T21:16:37.084Z,12.76
2022-10-06T21:19:11.011Z,12.66
2022-10-06T21:21:41.236Z,12.56
2022-10-06T21:24:12.768Z,12.58
2022-10-06T21:26:42.999Z,12.59
2022-10-06T21:29:16.967Z,12.62
2022-10-06T21:31:47.768Z,12.54
2022-10-06T21:34:19.047Z,12.47
2022-10-06T21:36:49.000Z,12.48
2022-10-06T21:39:20.280Z,12.65
2022-10-06T21:41:50.354Z,12.58
2022-10-06T21:44:24.020Z,12.62
2022-10-06T21:46:55.620Z,12.52
2022-10-06T21:49:28.506Z,12.60
2022-10-06T21:52:04.871Z,12.58
2022-10-06T21:54:35.931Z,12.59
2022-10-06T21:57:08.267Z,12.45
2022-10-06T21:59:40.914Z,12.42
2022-10-06T22:02:12.041Z,12.52
2022-10-06T22:04:42.201Z,12.28
2022-10-06T22:07:12.247Z,12.44
2022-10-06T22:09:43.310Z,12.43
2022-10-06T22:12:14.392Z,11.80
2022-10-06T22:14:48.182Z,12.26
2022-10-06T22:17:18.260Z,12.36
2022-10-06T22:19:48.283Z,12.13
2022-10-06T22:22:18.461Z,12.18
2022-10-06T22:24:49.581Z,12.26
2022-10-06T22:27:19.653Z,12.09
2022-10-06T22:29:52.291Z,12.17
2022-10-06T22:32:23.459Z,12.10
2022-10-06T22:34:54.152Z,12.10
2022-10-06T22:37:25.319Z,11.91
2022-10-06T22:39:55.380Z,12.02
2022-10-06T22:42:25.428Z,11.87
2022-10-06T22:44:58.020Z,12.17
2022-10-06T22:47:28.015Z,11.77
2022-10-06T22:49:58.092Z,11.96
2022-10-06T22:52:28.073Z,11.84
2022-10-06T22:54:58.109Z,12.02
2022-10-06T22:57:28.121Z,11.92
2022-10-06T23:00:00.710Z,11.64
2022-10-06T23:02:30.700Z,12.08
2022-10-06T23:05:00.699Z,12.07
2022-10-06T23:07:31.420Z,11.99
2022-10-06T23:10:01.505Z,11.89
2022-10-06T23:12:31.670Z,11.62
2022-10-06T23:15:04.319Z,12.00
2022-10-06T23:17:34.338Z,11.99
2022-10-06T23:20:04.721Z,12.05
2022-10-06T23:22:34.772Z,11.98
2022-10-06T23:25:04.932Z,11.96
2022-10-06T23:27:35.141Z,11.64
2022-10-06T23:30:09.738Z,11.85
2022-10-06T23:32:40.985Z,11.65
2022-10-06T23:35:11.716Z,12.04
2022-10-06T23:37:42.216Z,11.76
2022-10-06T23:40:13.623Z,12.05
2022-10-06T23:42:43.680Z,11.70
2022-10-06T23:45:16.536Z,12.12
2022-10-06T23:47:46.862Z,12.05
2022-10-06T23:50:17.057Z,12.05
2022-10-06T23:52:47.062Z,12.06
2022-10-06T23:55:17.239Z,12.06
2022-10-06T23:57:47.293Z,12.04
